Surface observations / UK / EGOM

Quebec | Canada | USA | France | UK | Europe | Elsewhere

Display: Info & Location for EGOM | Help decoding METAR


Raw surface observations for station EGOM
EGOM 030050Z AUTO 05005KT 9999 OVC037/// 11/10 Q1024=
EGOM 022350Z AUTO 05006KT 9999 OVC035/// 11/10 Q1024=
EGOM 022250Z AUTO 06006KT 9999 OVC034/// 11/09 Q1024=
EGOM 022150Z AUTO 04003KT 9999 OVC034/// 12/09 Q1024=
EGOM 022050Z AUTO 09006KT 9999 BKN034/// 13/09 Q1024=
EGOM 021950Z AUTO 07006KT 9999 OVC034/// 13/10 Q1024=
EGOM 021850Z AUTO 08006KT 9999 BKN033/// 15/11 Q1023=
EGOM 021750Z AUTO 10007KT 9999 // OVC030/// 16/11 Q1023=
EGOM 021650Z AUTO 11005KT 9999 OVC031/// 17/11 Q1023=
EGOM 021550Z AUTO 13005KT 9999 OVC034/// 17/10 Q1023=
EGOM 021450Z AUTO 12005KT 9999 BKN031/// 17/10 Q1023=
EGOM 021350Z AUTO 14004KT 9999 BKN029/// 17/10 Q1024=
EGOM 021250Z AUTO 35001KT 9999 BKN026/// 16/10 Q1024=
EGOM 021150Z AUTO 17002KT 9999 SCT025/// 16/09 Q1024=
EGOM 021050Z AUTO 20003KT 9999 FEW023/// 16/10 Q1024=
EGOM 020950Z AUTO 19005KT 9999 FEW019/// 15/10 Q1024=
EGOM 020850Z AUTO 25003KT 9999 SCT015/// 15/10 Q1024=
EGOM 020750Z AUTO 26001KT 9999 NCD 12/12 Q1024=
EGOM 020650Z AUTO 35001KT 5000 VV/// 09/08 Q1024=
EGOM 020550Z AUTO 27002KT 0250 FG VV/// 07/06 Q1023=
EGOM 020450Z AUTO 00000KT 9999 FEW003/// 07/06 Q1023=
EGOM 020350Z AUTO 28002KT 9999 NCD 08/07 Q1023=
EGOM 020250Z AUTO 20001KT 9999 NCD 09/08 Q1023=
EGOM 020150Z AUTO 34006KT 9999 NCD 08/07 Q1023=